• Join FlightAware (Why Join?)
  • Login
  • US Flag 
11:21PM EDT


 

Airport Tracker/Info


-or-


 

Live Flight TrackerFlight Track Log ✈ N516QS ✈ 03-Sep-2013 ✈ KLAS - KSJC

Flight Track Log - Related Links

Times and Time Zones

All times are in EDT time to prevent confusion due to time zone crossing. See the N516QS flight status page for this flight to view local times or setup timezone preferences in your user account.

Time Position Orientation Groundspeed Altitude Reporting Facility
EDT Latitude Longitude Course Direction KTS MPH feet Rate Location/Type
02:14PM 36.0747 -115.1714 212° Southwest 173 199 3,100  Level Los Angeles Center
02:15PM 36.0044 -115.2264 212° Southwest 219 252 7,000 2,340 Climbing Los Angeles Center
02:16PM 35.9756 -115.2917 241° Southwest 254 292 8,600 2,280 Climbing Los Angeles Center
02:17PM 35.9314 -115.3778 238° Southwest 319 367 11,500 2,940 Climbing Los Angeles Center
02:19PM 35.9194 -115.5867 266° West 393 452 16,500 3,000 Climbing Los Angeles Center
02:20PM 35.9103 -115.7383 266° West 412 474 19,600 2,880 Climbing Los Angeles Center
02:21PM 35.9200 -115.8853 275° West 438 504 22,500 2,460 Climbing Los Angeles Center
02:22PM 36.0019 -116.0089 309° West 474 545 24,800 2,040 Climbing Los Angeles Center
02:23PM 36.0978 -116.1322 314° West 493 567 26,800 2,340 Climbing Los Angeles Center
02:24PM 36.2097 -116.2769 314° West 512 589 29,700 2,580 Climbing Los Angeles Center
02:25PM 36.3094 -116.4069 314° West 519 597 32,100 2,280 Climbing Los Angeles Center
02:26PM 36.4083 -116.5378 313° West 522 601 34,500 2,400 Climbing Los Angeles Center
02:27PM 36.5064 -116.6661 314° West 518 596 37,100 2,400 Climbing Los Angeles Center
02:28PM 36.5847 -116.8289 301° West 512 589 39,500 1,380 Climbing Los Angeles Center
02:29PM 36.6178 -117.0069 283° West 492 566 40,000 240 Climbing Los Angeles Center
02:30PM 36.6481 -117.1603 284° West 474 545 40,000  Level Los Angeles Center
02:31PM 36.6775 -117.3183 283° West 470 541 40,000  Level Los Angeles Center
02:32PM 36.7086 -117.4833 283° West 479 551 40,000  Level Los Angeles Center
02:33PM 36.7389 -117.6475 283° West 485 558 40,000  Level Los Angeles Center
02:34PM 36.7700 -117.8083 284° West 483 556 40,000  Level Los Angeles Center
02:35PM 36.8053 -118.0000 283° West 487 560 40,000  Level Los Angeles Center
02:36PM 36.8347 -118.1614 283° West 482 555 40,000  Level Los Angeles Center
02:37PM 36.8647 -118.3228 283° West 478 550 40,000  Level Los Angeles Center
02:38PM 36.8944 -118.4872 283° West 481 554 40,000  Level Los Angeles Center
02:39PM 36.9214 -118.6492 282° West 482 555 40,000 -1,020 Level Oakland Center
02:40PM 36.9519 -118.8236 282° West 480 552 38,000 -2,100 Descending Oakland Center
02:41PM 36.9797 -118.9783 283° West 462 532 35,800 -2,280 Descending Oakland Center
02:42PM 37.0089 -119.1489 282° West 466 536 33,400 -2,280 Descending Oakland Center
02:43PM 37.0369 -119.3114 282° West 477 549 31,200 -2,160 Descending Oakland Center
02:44PM 37.0647 -119.4775 282° West 486 559 29,000 -2,280 Descending Oakland Center
02:45PM 37.0969 -119.6631 282° West 484 557 26,500 -2,340 Descending Oakland Center
02:47PM 37.1239 -119.8247 282° West 476 548 24,300 -2,160 Descending Oakland Center
02:48PM 37.1503 -119.9783 282° West 461 531 22,100 -2,040 Descending Oakland Center
02:49PM 37.1744 -120.1272 282° West 445 512 20,200 -1,920 Descending Oakland Center
02:50PM 37.1978 -120.2736 281° West 432 497 18,200 -1,860 Descending Oakland Center
02:51PM 37.2114 -120.4183 277° West 417 480 16,400 -1,800 Descending Oakland Center
02:52PM 37.1856 -120.5542 257° West 400 460 14,600 -1,860 Descending Oakland Center
02:53PM 37.1581 -120.6828 255° West 385 443 12,700 -1,860 Descending Oakland Center
02:54PM 37.1308 -120.8094 255° West 378 435 10,800 -1,320 Descending Oakland Center
02:55PM 37.1003 -120.9544 255° West 363 418 10,000 -360 Descending Oakland Center
02:56PM 37.0764 -121.0578 254° West 330 380 10,100  Climbing Oakland Center
02:57PM 37.0650 -121.1581 262° West 288 331 10,000 -60 Descending Oakland Center
02:58PM 37.0614 -121.2583 267° West 288 331 10,000 -540 Level Oakland Center
02:59PM 37.0561 -121.3575 266° West 288 331 8,900 -1,020 Descending Oakland Center
03:00PM 37.0517 -121.4550 267° West 284 327 8,000 -900 Descending Oakland Center
03:01PM 37.0489 -121.5525 268° West 282 325 7,100 -900 Descending Oakland Center
03:02PM 37.0964 -121.6278 308° West 289 333 6,200 -900 Descending Oakland Center
03:03PM 37.1517 -121.6922 317° Northwest 279 321 5,300 -1,020 Descending Oakland Center
03:04PM 37.1978 -121.7486 316° Northwest 252 290 4,200 -1,200 Descending Oakland Center
03:05PM 37.2522 -121.8108 318° Northwest 232 267 2,900 -1,080 Descending Oakland Center
03:06PM 37.2894 -121.8508 319° Northwest 199 229 2,000 -900 Descending Oakland Center
03:07PM 37.3158 -121.8781 321° Northwest 156 180 1,100 -720 Descending Oakland Center
03:08PM 37.3406 -121.9050 319° Northwest 131 151 600 9,180 Descending Oakland Center
03:09PM 37.3644 -121.9308 319° Northwest 121 139 20,000 18,720 Climbing Oakland Center
03:11PM 37.3627 -121.9291 North  Level Estimated